Time;durP1;ratioP1;P1;durP2;ratioP2;P2;SDS_P1;SDS_P2;PMS_P1;PMS_P2;Temp;Humidity;BMP_temperature;BMP_pressure;BME280_temperature;BME280_humidity;BME280_pressure;Samples;Min_cycle;Max_cycle;Signal;HPM_P1;HPM_P2
2021/07/25 00:00:49;;;;;;;4.1;2.8;;;;;;;16.7;92.66602;934.0303;;;;
2021/07/25 00:03:14;;;;;;;3.3;2.6;;;;;;;16.7;92.27246;933.9563;;;;
2021/07/25 00:05:41;;;;;;;3.9;2.9;;;;;;;16.55;93.30566;934.0223;;;;
2021/07/25 00:08:11;;;;;;;3.9;2.9;;;;;;;16.58;93.24219;933.9454;;;;
2021/07/25 00:10:33;;;;;;;4.5;3;;;;;;;16.64;92.73438;933.8295;;;;
2021/07/25 00:12:58;;;;;;;4.3;3;;;;;;;16.7;92.78223;933.8075;;;;
2021/07/25 00:15:29;;;;;;;4;3.2;;;;;;;16.68;92.58105;933.8417;;;;
2021/07/25 00:17:56;;;;;;;3.9;3.1;;;;;;;16.5;94.50879;933.8297;;;;
2021/07/25 00:20:21;;;;;;;4.7;3.1;;;;;;;16.72;92.95996;933.7341;;;;
2021/07/25 00:22:47;;;;;;;3.2;2.9;;;;;;;16.79;92.72168;933.7292;;;;
2021/07/25 00:25:18;;;;;;;3.8;2.9;;;;;;;16.77;91.73047;933.7499;;;;
2021/07/25 00:27:39;;;;;;;4.8;2.9;;;;;;;16.79;91.93262;933.7302;;;;
2021/07/25 00:30:02;;;;;;;6.1;2.9;;;;;;;16.9;91.31836;933.6596;;;;
2021/07/25 00:32:27;;;;;;;4.4;2.8;;;;;;;16.88;91.13867;933.7269;;;;
2021/07/25 00:34:53;;;;;;;5.7;3.2;;;;;;;17.09;90.45508;933.6507;;;;
2021/07/25 00:37:20;;;;;;;5.1;3.1;;;;;;;17.27;90.24707;933.5641;;;;
2021/07/25 00:39:44;;;;;;;4.3;3.1;;;;;;;17.32;89.79492;933.4348;;;;
2021/07/25 00:42:11;;;;;;;4.5;3.4;;;;;;;17.28;89.75;933.3948;;;;
2021/07/25 00:44:36;;;;;;;4.8;3.3;;;;;;;17.2;89.83984;933.3674;;;;
2021/07/25 00:47:02;;;;;;;4.8;3.1;;;;;;;17.01;91.09766;933.3411;;;;
2021/07/25 00:49:27;;;;;;;3.7;3.3;;;;;;;17.03;90.83496;933.348;;;;
2021/07/25 00:51:53;;;;;;;5.6;3.8;;;;;;;17.06;90.27246;933.329;;;;
2021/07/25 00:54:18;;;;;;;4.8;3.4;;;;;;;16.98;90.7207;933.2692;;;;
2021/07/25 00:56:45;;;;;;;5.9;3.6;;;;;;;16.75;91.39063;933.1874;;;;
2021/07/25 00:59:24;;;;;;;5.7;3.4;;;;;;;16.91;91.62109;933.1922;;;;
2021/07/25 01:01:52;;;;;;;4.3;3.7;;;;;;;17.08;90.18457;933.2802;;;;
2021/07/25 01:04:16;;;;;;;4.1;3.5;;;;;;;17.14;89.70898;933.2731;;;;
2021/07/25 01:06:41;;;;;;;4.3;3.2;;;;;;;17.05;90.24707;933.1732;;;;
2021/07/25 01:09:07;;;;;;;5.1;3.7;;;;;;;16.88;91.04785;933.1855;;;;
2021/07/25 01:11:31;;;;;;;4.4;3.9;;;;;;;16.88;91.18652;933.2209;;;;
2021/07/25 01:13:56;;;;;;;4.6;3.4;;;;;;;16.89;91.57129;933.2095;;;;
2021/07/25 01:16:22;;;;;;;5.2;3.4;;;;;;;16.83;91.43262;933.222;;;;
2021/07/25 01:18:50;;;;;;;6.8;4.4;;;;;;;16.96;91.70215;933.1217;;;;
2021/07/25 01:21:16;;;;;;;6.5;4;;;;;;;17.05;90.80371;933.0767;;;;
2021/07/25 01:24:31;;;;;;;6;4.3;;;;;;;17.11;90.64258;933.055;;;;
2021/07/25 01:26:57;;;;;;;5.1;3.9;;;;;;;17.23;89.66016;933.1255;;;;
2021/07/25 01:29:24;;;;;;;5.6;3.5;;;;;;;17.08;90.20801;933.1089;;;;
2021/07/25 01:31:52;;;;;;;4.5;3.9;;;;;;;17.05;90.59668;933.0524;;;;
2021/07/25 01:34:18;;;;;;;5.4;4;;;;;;;17.13;90.67188;933.093;;;;
2021/07/25 01:36:43;;;;;;;4.8;4.1;;;;;;;17.21;90.44336;933.0905;;;;
2021/07/25 01:39:10;;;;;;;5.8;4.3;;;;;;;17.22;89.85352;933.1545;;;;
2021/07/25 01:41:35;;;;;;;5.3;3.9;;;;;;;17.25;89.91699;933.1486;;;;
2021/07/25 01:44:01;;;;;;;5.3;4;;;;;;;17.26;89.93262;933.1241;;;;
2021/07/25 01:46:26;;;;;;;5.7;4;;;;;;;17.3;89.99902;933.1086;;;;
2021/07/25 01:48:53;;;;;;;5.2;4.3;;;;;;;17.14;90.63867;933.1145;;;;
2021/07/25 01:51:18;;;;;;;6.5;4.3;;;;;;;16.96;91.58398;933.1186;;;;
2021/07/25 01:53:45;;;;;;;5.8;4.3;;;;;;;16.88;92.67969;933.1841;;;;
2021/07/25 01:56:10;;;;;;;6.1;4.8;;;;;;;16.94;92.05762;933.173;;;;
2021/07/25 01:58:38;;;;;;;6.9;4.6;;;;;;;17.1;91.99902;933.1719;;;;
2021/07/25 02:01:02;;;;;;;6;4.7;;;;;;;17.25;90.83301;933.1583;;;;
2021/07/25 02:03:30;;;;;;;5.8;4.4;;;;;;;17.16;90.86035;933.0908;;;;
2021/07/25 02:03:58;;;;;;;6.9;5.1;;;;;;;17.17;90.8877;933.0721;;;;
2021/07/25 02:06:23;;;;;;;5.4;4.6;;;;;;;17.25;90.65137;933.1154;;;;
2021/07/25 02:08:51;;;;;;;7.6;4.7;;;;;;;17.28;90.50391;933.1559;;;;
2021/07/25 02:11:16;;;;;;;8.8;4.9;;;;;;;17.26;90.92969;933.2109;;;;
2021/07/25 02:13:44;;;;;;;7.1;4.9;;;;;;;17.22;91.02637;933.2264;;;;
2021/07/25 02:16:17;;;;;;;8.5;5.1;;;;;;;17.19;91.66797;933.2559;;;;
2021/07/25 02:18:45;;;;;;;7.6;4.9;;;;;;;17.25;91.35449;933.2484;;;;
2021/07/25 02:21:11;;;;;;;8.3;5.3;;;;;;;17.36;91.10059;933.17;;;;
2021/07/25 02:23:38;;;;;;;5.7;5.1;;;;;;;17.51;89.39258;933.2106;;;;
2021/07/25 02:26:03;;;;;;;7.3;5.1;;;;;;;17.58;89.41699;933.2484;;;;
2021/07/25 02:28:35;;;;;;;7;5.3;;;;;;;17.48;90.08301;933.2444;;;;
2021/07/25 02:31:04;;;;;;;6;4.9;;;;;;;17.53;90.19629;933.2618;;;;
2021/07/25 02:33:33;;;;;;;6.6;5.1;;;;;;;17.54;90.31445;933.293;;;;
2021/07/25 02:35:58;;;;;;;6.2;5;;;;;;;17.48;90.96484;933.2935;;;;
2021/07/25 02:38:23;;;;;;;6.7;5;;;;;;;17.47;90.49707;933.3059;;;;
2021/07/25 02:40:52;;;;;;;5.3;4.6;;;;;;;17.51;90.22754;933.35;;;;
2021/07/25 02:43:17;;;;;;;6.1;4.8;;;;;;;17.38;91.19922;933.3013;;;;
2021/07/25 02:45:47;;;;;;;6.7;4.7;;;;;;;17.41;91.34375;933.3699;;;;
2021/07/25 02:48:15;;;;;;;7.8;5;;;;;;;17.57;90.19238;933.4089;;;;
2021/07/25 02:51:47;;;;;;;8;5.4;;;;;;;17.78;89.19043;933.5095;;;;
2021/07/25 02:54:14;;;;;;;6;5.4;;;;;;;17.85;88.98633;933.5264;;;;
2021/07/25 02:56:39;;;;;;;6.8;5.1;;;;;;;17.86;89.20898;933.5174;;;;
2021/07/25 02:59:07;;;;;;;6.2;5.1;;;;;;;17.96;87.6709;933.5842;;;;
2021/07/25 03:01:32;;;;;;;6.4;4.8;;;;;;;17.87;86.50293;933.6114;;;;
2021/07/25 03:03:59;;;;;;;6.4;5;;;;;;;17.98;86.78125;933.7253;;;;
2021/07/25 03:06:24;;;;;;;5.2;4.5;;;;;;;17.98;86.81445;933.7076;;;;
2021/07/25 03:08:52;;;;;;;7.4;5;;;;;;;17.93;87.2959;933.7096;;;;
2021/07/25 03:11:49;;;;;;;6.4;4.9;;;;;;;17.99;87.37402;933.7631;;;;
2021/07/25 03:14:18;;;;;;;7.5;4.8;;;;;;;18;86.62305;933.8134;;;;
2021/07/25 03:16:44;;;;;;;5.7;4.8;;;;;;;18.04;86.5498;933.8844;;;;
2021/07/25 03:19:13;;;;;;;6;4.9;;;;;;;17.98;86.80273;933.9124;;;;
2021/07/25 03:21:38;;;;;;;6.5;5.3;;;;;;;17.99;86.7373;933.9377;;;;
2021/07/25 03:24:07;;;;;;;7;5.3;;;;;;;17.99;85.48242;933.916;;;;
2021/07/25 03:26:32;;;;;;;6.2;5.6;;;;;;;;;;;;;
2021/07/25 03:28:57;;;;;;;6.4;5.1;;;;;;;;;;;;;
2021/07/25 03:31:22;;;;;;;6.6;5.4;;;;;;;;;;;;;
2021/07/25 03:33:48;;;;;;;6.4;5.2;;;;;;;;;;;;;
2021/07/25 03:36:13;;;;;;;6.4;5.3;;;;;;;;;;;;;
2021/07/25 03:38:38;;;;;;;5.8;5.2;;;;;;;;;;;;;
2021/07/25 03:41:03;;;;;;;6;5.4;;;;;;;;;;;;;
2021/07/25 03:43:30;;;;;;;6.9;5.4;;;;;;;;;;;;;
2021/07/25 03:45:55;;;;;;;6.7;5.1;;;;;;;;;;;;;
2021/07/25 03:48:20;;;;;;;8.7;5.3;;;;;;;;;;;;;
2021/07/25 03:50:45;;;;;;;8.1;5.2;;;;;;;;;;;;;
2021/07/25 03:53:10;;;;;;;6.1;5.4;;;;;;;;;;;;;
2021/07/25 03:55:36;;;;;;;12;5.7;;;;;;;;;;;;;
2021/07/25 03:58:17;;;;;;;6.1;4.7;;;;;;;;;;;;;
2021/07/25 04:00:36;;;;;;;7.6;4.9;;;;;;;;;;;;;
2021/07/25 04:03:21;;;;;;;7.7;5;;;;;;;17.55;87.28809;934.1556;;;;
2021/07/25 04:05:46;;;;;;;6.7;5.5;;;;;;;17.48;88.49316;934.1548;;;;
2021/07/25 04:08:15;;;;;;;7.8;5.6;;;;;;;17.31;89.50098;934.2383;;;;
2021/07/25 04:10:39;;;;;;;7.1;5.6;;;;;;;17.22;89.98145;934.228;;;;
2021/07/25 04:13:05;;;;;;;8.8;6;;;;;;;17.12;89.35938;934.1311;;;;
2021/07/25 04:15:33;;;;;;;8;6;;;;;;;17.05;89.21777;934.091;;;;
2021/07/25 04:17:59;;;;;;;6.4;5.7;;;;;;;17.03;89.78027;934.1131;;;;
2021/07/25 04:20:27;;;;;;;8.1;6.3;;;;;;;17.02;90.27637;934.1461;;;;
2021/07/25 04:22:52;;;;;;;8.2;5.8;;;;;;;16.98;90.47754;934.1541;;;;
2021/07/25 04:25:17;;;;;;;6.8;6;;;;;;;17;90.86328;934.1175;;;;
2021/07/25 04:27:46;;;;;;;8.2;5.9;;;;;;;16.99;91.24414;934.2014;;;;
2021/07/25 04:30:11;;;;;;;7.9;5.9;;;;;;;16.96;89.96387;934.1915;;;;
2021/07/25 04:32:39;;;;;;;9.2;6.1;;;;;;;17.03;90.6377;934.2572;;;;
2021/07/25 04:35:07;;;;;;;6.7;6;;;;;;;17.05;89.77344;934.2582;;;;
2021/07/25 04:37:30;;;;;;;7.4;5.8;;;;;;;16.89;91.13086;934.2453;;;;
2021/07/25 04:39:57;;;;;;;5.9;5.1;;;;;;;16.96;90.84277;934.19;;;;
2021/07/25 04:42:22;;;;;;;6.2;5.6;;;;;;;16.97;91.14941;934.2444;;;;
2021/07/25 04:44:47;;;;;;;8.6;5.7;;;;;;;16.98;91.625;934.2676;;;;
2021/07/25 04:47:14;;;;;;;9.1;5.3;;;;;;;16.97;92.05371;934.3135;;;;
2021/07/25 04:49:40;;;;;;;6.9;5.7;;;;;;;16.84;92.61426;934.3148;;;;
2021/07/25 04:52:07;;;;;;;7.6;5.7;;;;;;;16.81;92.96582;934.3071;;;;
2021/07/25 04:54:32;;;;;;;7.3;5.7;;;;;;;16.7;93.11816;934.3124;;;;
2021/07/25 04:57:01;;;;;;;7.5;6.3;;;;;;;16.67;93.55273;934.2592;;;;
2021/07/25 04:59:32;;;;;;;9.4;6.2;;;;;;;16.78;93.45996;934.2289;;;;
2021/07/25 05:02:00;;;;;;;7.6;6.6;;;;;;;17.03;92.18066;934.2208;;;;
2021/07/25 05:04:22;;;;;;;8.6;6.7;;;;;;;17.21;92.42578;934.2314;;;;
2021/07/25 05:06:48;;;;;;;11.8;6.7;;;;;;;17.32;92.07715;934.242;;;;
2021/07/25 05:09:17;;;;;;;9.8;6.6;;;;;;;17.47;91.76172;934.1841;;;;
2021/07/25 05:11:43;;;;;;;8.5;6.4;;;;;;;17.61;89.87695;934.2436;;;;
2021/07/25 05:14:08;;;;;;;8.7;6.5;;;;;;;17.71;89.23535;934.2249;;;;
2021/07/25 05:16:34;;;;;;;8.6;6.2;;;;;;;17.75;88.38379;934.2955;;;;
2021/07/25 05:18:59;;;;;;;9.7;6.7;;;;;;;17.75;88.49023;934.2802;;;;
2021/07/25 05:25:06;;;;;;;7.4;6.3;;;;;;;17.77;89.2002;934.2161;;;;
2021/07/25 05:27:32;;;;;;;11;6;;;;;;;17.96;89.29883;934.2294;;;;
2021/07/25 05:30:02;;;;;;;8.4;5.7;;;;;;;18.49;87.18555;934.2258;;;;
2021/07/25 05:32:27;;;;;;;5.3;4.7;;;;;;;18.95;84.00586;934.137;;;;
2021/07/25 05:34:54;;;;;;;6.2;4.9;;;;;;;19.41;80.80762;934.1196;;;;
2021/07/25 05:37:19;;;;;;;7.1;5.1;;;;;;;20.19;78.25391;934.0947;;;;
2021/07/25 05:39:47;;;;;;;7.8;4.7;;;;;;;20.36;76.70605;934.0812;;;;
2021/07/25 05:42:12;;;;;;;6.1;4.6;;;;;;;20.88;76.65625;934.0765;;;;
2021/07/25 05:44:39;;;;;;;7.3;4.9;;;;;;;21.12;74.63965;934.0428;;;;
2021/07/25 05:47:04;;;;;;;6.7;4.4;;;;;;;21.67;73.20898;934.0234;;;;
2021/07/25 05:49:30;;;;;;;4.4;4;;;;;;;22.23;69.95898;933.9749;;;;
2021/07/25 05:51:55;;;;;;;7.4;4.4;;;;;;;21.58;71.12305;933.9481;;;;
2021/07/25 05:54:21;;;;;;;6.9;4.2;;;;;;;21.62;70.61328;933.9059;;;;
2021/07/25 05:56:46;;;;;;;6.3;4.5;;;;;;;21.47;71.29102;933.8958;;;;
2021/07/25 06:00:18;;;;;;;6.9;4.8;;;;;;;21.52;70.29297;933.8677;;;;
2021/07/25 06:02:37;;;;;;;6.3;4.3;;;;;;;22.59;66.80078;933.8702;;;;
2021/07/25 06:05:08;;;;;;;9.9;4.4;;;;;;;23.47;64.95605;933.9019;;;;
2021/07/25 06:07:33;;;;;;;5.8;4.1;;;;;;;23.4;64.46484;933.8809;;;;
2021/07/25 06:09:58;;;;;;;5.3;4.3;;;;;;;23.1;66.13574;933.8812;;;;
2021/07/25 06:12:44;;;;;;;6.1;4.4;;;;;;;22.45;66.85059;933.7929;;;;
2021/07/25 06:15:16;;;;;;;6.5;4.6;;;;;;;21.8;69.95117;933.7626;;;;
2021/07/25 06:17:46;;;;;;;6.2;4.7;;;;;;;23.52;65.60059;933.7569;;;;
2021/07/25 06:25:26;;;;;;;8.1;4.8;;;;;;;24.65;59.72949;933.6092;;;;
2021/07/25 06:29:05;;;;;;;6.4;4.2;;;;;;;25.1;58.92773;933.5325;;;;
2021/07/25 06:31:30;;;;;;;6.7;4.6;;;;;;;25.63;55.92578;933.4379;;;;
2021/07/25 06:33:59;;;;;;;4.4;4;;;;;;;26.72;54.12012;933.4361;;;;
2021/07/25 06:36:24;;;;;;;4.8;4.1;;;;;;;26.26;54.70313;933.3536;;;;
2021/07/25 06:38:49;;;;;;;5.4;4.4;;;;;;;26.65;54.02832;933.3343;;;;
2021/07/25 06:41:14;;;;;;;6.7;4.2;;;;;;;27.43;51.46387;933.2853;;;;
2021/07/25 06:43:39;;;;;;;6.1;4.4;;;;;;;27.62;51.34375;933.3325;;;;
2021/07/25 06:46:04;;;;;;;6.9;4.5;;;;;;;26.94;52.65234;933.1965;;;;
2021/07/25 06:48:32;;;;;;;4.3;3.8;;;;;;;27.14;52.03613;933.1024;;;;
2021/07/25 06:50:56;;;;;;;6.4;4.1;;;;;;;27.4;54.30859;933.1332;;;;
2021/07/25 06:53:25;;;;;;;6.3;4.4;;;;;;;28.06;53.15234;933.0829;;;;
2021/07/25 06:55:50;;;;;;;5.3;4.1;;;;;;;29.83;46.03906;933.0773;;;;
2021/07/25 06:58:18;;;;;;;7.7;4.4;;;;;;;29.39;48.35254;933.1094;;;;
2021/07/25 07:01:20;;;;;;;7;4.3;;;;;;;28.55;48.75;933.1711;;;;
2021/07/25 07:03:48;;;;;;;5.8;4.2;;;;;;;28.53;48.64063;933.1355;;;;
2021/07/25 07:06:13;;;;;;;7.5;4.2;;;;;;;28.65;50.35449;933.1802;;;;
2021/07/25 07:08:41;;;;;;;5.9;4.2;;;;;;;27.84;50.24121;933.2458;;;;
2021/07/25 07:11:06;;;;;;;6.1;4.2;;;;;;;26.86;53.85156;933.298;;;;
2021/07/25 07:13:35;;;;;;;6;4.5;;;;;;;26.35;53.12793;933.3191;;;;
2021/07/25 07:16:02;;;;;;;6.5;4.8;;;;;;;24.6;57.72949;933.3367;;;;
2021/07/25 07:18:33;;;;;;;7.3;5;;;;;;;24.23;61.48633;933.359;;;;
2021/07/25 07:21:06;;;;;;;7.9;5.3;;;;;;;23.72;64.28711;933.4717;;;;
2021/07/25 07:23:35;;;;;;;7.8;5.2;;;;;;;22.86;67.1582;933.4619;;;;
2021/07/25 07:26:00;;;;;;;8.9;4.8;;;;;;;22.42;70.30762;933.4481;;;;
2021/07/25 07:28:29;;;;;;;5.9;4.7;;;;;;;22.69;69.16309;933.4034;;;;
2021/07/25 07:30:59;;;;;;;6.2;4.6;;;;;;;22.97;69.05371;933.2693;;;;
2021/07/25 07:33:25;;;;;;;5.6;4.5;;;;;;;23.61;66.67285;933.3342;;;;
2021/07/25 07:35:56;;;;;;;7;4.9;;;;;;;23.87;64.24902;933.2516;;;;
2021/07/25 07:38:24;;;;;;;5.9;4.6;;;;;;;24.28;64.92188;933.3167;;;;
2021/07/25 07:40:49;;;;;;;5.9;4.6;;;;;;;26.04;60.08203;933.3335;;;;
2021/07/25 07:43:20;;;;;;;6.2;4.4;;;;;;;27.57;55.39746;933.3214;;;;
2021/07/25 07:45:43;;;;;;;5.4;4.3;;;;;;;26.28;54.29102;933.2405;;;;
2021/07/25 07:48:09;;;;;;;5.8;4.6;;;;;;;24.12;58.28125;933.2122;;;;
2021/07/25 07:50:34;;;;;;;6.5;4.4;;;;;;;24.55;58.85547;933.2098;;;;
2021/07/25 07:53:02;;;;;;;5.9;4.6;;;;;;;23.75;61.41016;933.1919;;;;
2021/07/25 07:55:27;;;;;;;6.9;4.8;;;;;;;23.58;63.86621;933.149;;;;
2021/07/25 07:57:55;;;;;;;5.7;4.6;;;;;;;23.78;62.31934;933.1555;;;;
2021/07/25 08:00:20;;;;;;;6.6;5.2;;;;;;;24.11;63.49512;933.1313;;;;
2021/07/25 08:02:46;;;;;;;6.4;4.9;;;;;;;23.88;60.43848;933.1119;;;;
2021/07/25 08:05:13;;;;;;;7.5;4.9;;;;;;;23.86;64.64844;933.0983;;;;
2021/07/25 08:07:38;;;;;;;8.3;5.1;;;;;;;23.93;61.14063;933.1199;;;;
2021/07/25 08:10:03;;;;;;;6;4.6;;;;;;;23.69;60.31836;933.0869;;;;
2021/07/25 08:12:30;;;;;;;7;5;;;;;;;23.77;63.3418;933.1082;;;;
2021/07/25 08:14:55;;;;;;;6.2;5;;;;;;;23.61;63.68457;933.1342;;;;
2021/07/25 08:17:22;;;;;;;7.7;5.4;;;;;;;23.36;68.82129;933.136;;;;
2021/07/25 08:19:51;;;;;;;6.7;5;;;;;;;23.26;68.72363;933.1532;;;;
2021/07/25 08:22:16;;;;;;;5.7;4.9;;;;;;;23.37;64.59082;933.1774;;;;
2021/07/25 08:24:42;;;;;;;8.1;5.3;;;;;;;23.3;67.50684;933.1984;;;;
2021/07/25 08:27:07;;;;;;;8.2;5.4;;;;;;;22.99;71.07715;933.1962;;;;
2021/07/25 08:29:39;;;;;;;7.1;5.8;;;;;;;22.45;73.56152;933.1848;;;;
2021/07/25 08:32:03;;;;;;;7.7;5.4;;;;;;;22.46;71.89648;933.2169;;;;
2021/07/25 08:34:29;;;;;;;7.5;5.7;;;;;;;22.63;70.28125;933.2161;;;;
2021/07/25 08:36:54;;;;;;;7.5;5.2;;;;;;;22.71;69.38867;933.2509;;;;
2021/07/25 08:39:22;;;;;;;7.9;5.9;;;;;;;22.52;73.15039;933.2961;;;;
2021/07/25 08:41:47;;;;;;;7.5;5.3;;;;;;;22.57;68.62793;933.2883;;;;
2021/07/25 08:44:12;;;;;;;7.8;5.1;;;;;;;22.64;69.27148;933.3109;;;;
2021/07/25 08:46:40;;;;;;;8.2;5.4;;;;;;;22.28;74.54004;933.1671;;;;
2021/07/25 08:49:17;;;;;;;7.7;5.8;;;;;;;22.24;76.23438;933.0385;;;;
2021/07/25 08:51:44;;;;;;;6.3;5.4;;;;;;;22.22;76.13867;932.9535;;;;
2021/07/25 08:54:24;;;;;;;7.1;5.7;;;;;;;22.32;72.90527;933.0453;;;;
2021/07/25 08:56:50;;;;;;;7.8;5.9;;;;;;;22.24;72.9043;933.1267;;;;
2021/07/25 08:59:15;;;;;;;8.4;5.6;;;;;;;22.41;72.73242;933.1785;;;;
2021/07/25 09:01:45;;;;;;;7.2;5.9;;;;;;;22.54;73.26953;933.2144;;;;
2021/07/25 09:04:15;;;;;;;6.7;5.3;;;;;;;22.95;70.18848;933.2048;;;;
2021/07/25 09:06:41;;;;;;;7.5;5.4;;;;;;;22.93;71.70215;933.1844;;;;
2021/07/25 09:09:34;;;;;;;6.9;5.2;;;;;;;23.22;72.75977;933.2114;;;;
2021/07/25 09:11:48;;;;;;;15.8;6.8;;;;;;;23.35;72.09863;933.14;;;;
2021/07/25 09:14:13;;;;;;;9.4;5.6;;;;;;;23.28;72.39258;933.0817;;;;
2021/07/25 09:16:44;;;;;;;6.6;5.1;;;;;;;23.63;70.99121;933.0184;;;;
2021/07/25 09:19:11;;;;;;;7.5;5.2;;;;;;;23.69;71.13086;933.0478;;;;
2021/07/25 09:21:36;;;;;;;8.7;5.6;;;;;;;23.93;68.03809;933.046;;;;
2021/07/25 09:24:04;;;;;;;7.5;5.4;;;;;;;24.12;66.08789;933.0773;;;;
2021/07/25 09:26:26;;;;;;;5.6;4.8;;;;;;;24.58;64.85938;933.1055;;;;
2021/07/25 09:28:58;;;;;;;6.2;4.9;;;;;;;24.94;65.14844;933.1689;;;;
2021/07/25 09:31:24;;;;;;;6.1;4.9;;;;;;;24.78;63.60352;933.2139;;;;
2021/07/25 09:33:48;;;;;;;6.7;4.8;;;;;;;25;63.41016;933.2076;;;;
2021/07/25 09:36:18;;;;;;;6.7;5;;;;;;;25.13;61.70508;933.1244;;;;
2021/07/25 09:38:44;;;;;;;7.2;4.9;;;;;;;25.48;59.94727;933.0829;;;;
2021/07/25 09:41:08;;;;;;;6.5;4.5;;;;;;;24.8;62.99316;933.1151;;;;
2021/07/25 09:43:36;;;;;;;7.7;5.1;;;;;;;24.58;64.70605;933.0297;;;;
2021/07/25 09:46:10;;;;;;;8;5.2;;;;;;;24.34;64.67188;933.0039;;;;
2021/07/25 09:48:40;;;;;;;7.2;5.4;;;;;;;23.97;66.06641;932.9707;;;;
2021/07/25 09:51:05;;;;;;;7.6;5.5;;;;;;;23.98;65.33789;932.9906;;;;
2021/07/25 09:53:31;;;;;;;7.1;5.6;;;;;;;24.13;65.03027;933.0524;;;;
2021/07/25 09:56:02;;;;;;;6.5;5;;;;;;;24.26;66.89844;933.1429;;;;
2021/07/25 09:58:33;;;;;;;8.4;5.9;;;;;;;24.37;64.46484;933.1404;;;;
2021/07/25 10:01:02;;;;;;;6.3;5.2;;;;;;;24.53;62.90625;933.0497;;;;
2021/07/25 10:03:32;;;;;;;9.6;6.1;;;;;;;24.6;66.24219;932.9625;;;;
2021/07/25 10:05:54;;;;;;;28.4;11.5;;;;;;;24.77;65.64258;932.7854;;;;
2021/07/25 10:08:22;;;;;;;9.9;6.5;;;;;;;24.46;65.02051;932.7477;;;;
2021/07/25 10:10:45;;;;;;;8;5.4;;;;;;;24.52;66.70215;932.6599;;;;
2021/07/25 10:13:16;;;;;;;7.3;5.8;;;;;;;24.41;65.18945;932.5388;;;;
2021/07/25 10:15:53;;;;;;;6.9;5.3;;;;;;;24.67;65.52246;932.5767;;;;
2021/07/25 10:18:20;;;;;;;7.5;5.9;;;;;;;24.76;65.46289;932.5198;;;;
2021/07/25 10:20:46;;;;;;;6.9;5.9;;;;;;;24.78;63.81641;932.4881;;;;
2021/07/25 10:23:17;;;;;;;6.4;5.3;;;;;;;24.75;65.3916;932.5884;;;;
2021/07/25 10:25:47;;;;;;;6.9;5.2;;;;;;;25.05;63.07422;932.5503;;;;
2021/07/25 10:28:12;;;;;;;7.7;5.7;;;;;;;25.13;63.53418;932.5214;;;;
2021/07/25 10:30:39;;;;;;;8.2;5.4;;;;;;;24.61;66.21875;932.5724;;;;
2021/07/25 10:33:09;;;;;;;6.4;5.5;;;;;;;24.9;64.7998;932.5644;;;;
2021/07/25 10:35:39;;;;;;;6.9;5.5;;;;;;;24.72;64.21973;932.5817;;;;
2021/07/25 10:38:04;;;;;;;10.4;5.7;;;;;;;25.3;62.98145;932.5148;;;;
2021/07/25 10:40:35;;;;;;;7;5.3;;;;;;;25.88;60.89844;932.5996;;;;
2021/07/25 10:42:59;;;;;;;7.3;5.3;;;;;;;25.71;62.73145;932.6855;;;;
2021/07/25 10:45:26;;;;;;;6.2;5.2;;;;;;;25.43;63.60156;932.7411;;;;
2021/07/25 10:47:52;;;;;;;7.4;5.5;;;;;;;25.2;66.42676;932.7838;;;;
2021/07/25 10:50:21;;;;;;;7.6;5.7;;;;;;;25.15;62.57031;932.7458;;;;
2021/07/25 10:52:46;;;;;;;8.5;5;;;;;;;25.27;62.69336;932.7947;;;;
2021/07/25 10:55:12;;;;;;;6.7;5.3;;;;;;;25.05;61.68164;932.8453;;;;
2021/07/25 10:57:37;;;;;;;7.3;5.6;;;;;;;25.01;61.60742;932.8678;;;;
2021/07/25 11:00:10;;;;;;;7.3;5.5;;;;;;;24.96;61.87012;932.8657;;;;
2021/07/25 11:02:36;;;;;;;6.6;5.6;;;;;;;24.62;65.52637;932.6686;;;;
2021/07/25 11:05:01;;;;;;;8.1;5.6;;;;;;;24.5;66.02734;932.4297;;;;
2021/07/25 11:07:29;;;;;;;7.7;5.6;;;;;;;24.41;65.3418;932.3995;;;;
2021/07/25 11:09:54;;;;;;;5.9;5.1;;;;;;;24.04;66.5127;932.2695;;;;
2021/07/25 11:12:20;;;;;;;6.6;5.5;;;;;;;23.78;67.4502;932.426;;;;
2021/07/25 11:15:57;;;;;;;6.7;5.6;;;;;;;23.38;69.0459;932.6379;;;;
2021/07/25 11:18:22;;;;;;;8.2;5.6;;;;;;;23.06;67.01367;932.597;;;;
2021/07/25 11:20:52;;;;;;;7.8;5.8;;;;;;;22.99;69.11523;932.511;;;;
2021/07/25 11:23:18;;;;;;;5.9;5.3;;;;;;;23.14;69.60938;932.5342;;;;
2021/07/25 11:25:43;;;;;;;6.8;5.4;;;;;;;23.33;69.88477;932.5894;;;;
2021/07/25 11:28:12;;;;;;;6.5;5;;;;;;;23.48;67.69727;932.6042;;;;
2021/07/25 11:30:37;;;;;;;7.2;5.4;;;;;;;23.29;72.15918;932.4955;;;;
2021/07/25 11:33:09;;;;;;;6;5.3;;;;;;;23.42;69.34766;932.4614;;;;
2021/07/25 11:35:34;;;;;;;7;5.2;;;;;;;23.18;69.7207;932.2495;;;;
2021/07/25 11:38:02;;;;;;;8.2;5.5;;;;;;;23.1;73.19922;932.2012;;;;
2021/07/25 11:40:27;;;;;;;5.3;4.8;;;;;;;23.22;72.56055;932.2456;;;;
2021/07/25 11:42:52;;;;;;;8;5.4;;;;;;;23.37;72.79688;932.2695;;;;
2021/07/25 11:45:25;;;;;;;8.3;5.6;;;;;;;23.36;71.34766;932.366;;;;
2021/07/25 11:47:50;;;;;;;8.1;5.4;;;;;;;23.61;72.59961;932.2452;;;;
2021/07/25 11:50:20;;;;;;;7.3;5.2;;;;;;;23.74;69.99707;932.1649;;;;
2021/07/25 11:52:47;;;;;;;7.8;5.8;;;;;;;23.98;69.26953;932.1552;;;;
2021/07/25 11:55:12;;;;;;;6.6;5.6;;;;;;;24;68.07324;932.2003;;;;
2021/07/25 11:57:37;;;;;;;7.1;5.4;;;;;;;24.03;69.00684;932.365;;;;
2021/07/25 12:00:09;;;;;;;6.9;5.3;;;;;;;23.89;68.17285;932.4843;;;;
2021/07/25 12:02:36;;;;;;;6.3;5.5;;;;;;;24.1;65.7666;932.5513;;;;
2021/07/25 12:05:00;;;;;;;7.7;5.9;;;;;;;23.95;66.95996;932.6234;;;;
2021/07/25 12:07:27;;;;;;;8.4;5.7;;;;;;;23.52;67.41211;932.7531;;;;
2021/07/25 12:09:57;;;;;;;7.5;5.6;;;;;;;23.42;70.12305;932.731;;;;
2021/07/25 12:12:21;;;;;;;7.8;5.9;;;;;;;23.29;71.05566;932.6935;;;;
2021/07/25 12:14:50;;;;;;;7.2;6.1;;;;;;;23.14;71.4541;932.7117;;;;
2021/07/25 12:17:19;;;;;;;8.2;6.3;;;;;;;22.65;73.42969;932.7908;;;;
2021/07/25 12:19:45;;;;;;;9;6.6;;;;;;;22.37;73.77051;932.7551;;;;
2021/07/25 12:22:10;;;;;;;7.9;6.7;;;;;;;22.24;75.43848;932.7258;;;;
2021/07/25 12:24:37;;;;;;;8.5;6.6;;;;;;;22.21;75.86621;932.6775;;;;
2021/07/25 12:27:05;;;;;;;8.4;6.5;;;;;;;22.31;74.3584;932.6498;;;;
2021/07/25 12:29:31;;;;;;;9.4;7;;;;;;;22.36;75.57422;932.655;;;;
2021/07/25 12:31:57;;;;;;;8.2;6.4;;;;;;;22.37;76.06934;932.5968;;;;
2021/07/25 12:34:22;;;;;;;8.8;6.6;;;;;;;22.41;75.14746;932.433;;;;
2021/07/25 12:36:49;;;;;;;9.4;6.9;;;;;;;22.23;76.37305;932.4005;;;;
2021/07/25 12:39:23;;;;;;;8.3;7.1;;;;;;;22.37;76.25781;932.3331;;;;
2021/07/25 12:41:49;;;;;;;8.4;6.6;;;;;;;22.55;78.06055;932.399;;;;
2021/07/25 12:44:14;;;;;;;8.5;6.5;;;;;;;22.57;79.15527;932.3689;;;;
2021/07/25 12:46:39;;;;;;;7.9;7;;;;;;;22.36;80.41992;932.2322;;;;
2021/07/25 12:49:06;;;;;;;8.2;6.6;;;;;;;22.68;78.25879;932.2238;;;;
2021/07/25 12:51:41;;;;;;;8.7;6.3;;;;;;;22.81;76.9541;932.2;;;;
2021/07/25 12:54:00;;;;;;;9.5;6.7;;;;;;;22.95;76.04004;932.3278;;;;
2021/07/25 12:58:02;;;;;;;9.6;6.5;;;;;;;23.11;72.7998;932.4398;;;;
2021/07/25 13:00:36;;;;;;;8.7;6.5;;;;;;;23.38;74.2207;932.5028;;;;
2021/07/25 13:05:19;;;;;;;7;5.8;;;;;;;23.87;72.00684;932.4991;;;;
2021/07/25 13:07:44;;;;;;;8.2;5.8;;;;;;;24.08;68.63867;932.4788;;;;
2021/07/25 13:10:14;;;;;;;8.3;5.7;;;;;;;23.95;70.46582;932.5058;;;;
2021/07/25 13:13:08;;;;;;;9.1;6.3;;;;;;;23.54;72.02539;932.428;;;;
2021/07/25 13:15:35;;;;;;;7.5;6.3;;;;;;;23.79;71.2168;932.469;;;;
2021/07/25 13:18:02;;;;;;;8.2;6.4;;;;;;;24.25;70.78418;932.4352;;;;
2021/07/25 13:23:02;;;;;;;7.8;6;;;;;;;24.39;69.8877;932.4419;;;;
2021/07/25 13:25:35;;;;;;;7;5.7;;;;;;;24.81;68.11328;932.5037;;;;
2021/07/25 13:34:25;;;;;;;7.1;5.4;;;;;;;25.41;64.39063;932.3823;;;;
2021/07/25 13:36:51;;;;;;;7.1;5.8;;;;;;;25.37;65.05566;932.3467;;;;
2021/07/25 13:39:16;;;;;;;7.3;5.7;;;;;;;25.28;64.44238;932.2793;;;;
2021/07/25 13:41:43;;;;;;;7.4;5.9;;;;;;;25.14;65.45996;932.2356;;;;
2021/07/25 13:44:08;;;;;;;5.9;5.3;;;;;;;25.28;63.28516;932.235;;;;
2021/07/25 13:46:48;;;;;;;8.1;5.5;;;;;;;25.23;62.66504;932.1622;;;;
2021/07/25 13:49:08;;;;;;;7;5.5;;;;;;;25.3;62.02441;932.177;;;;
2021/07/25 13:51:34;;;;;;;7.5;5.5;;;;;;;25.19;63.49609;932.1609;;;;
2021/07/25 13:53:59;;;;;;;7.1;5.3;;;;;;;24.51;66.68848;932.1876;;;;
2021/07/25 13:56:26;;;;;;;6.8;5;;;;;;;24.34;67.93555;932.1575;;;;
2021/07/25 13:58:51;;;;;;;6.4;5.2;;;;;;;24.84;66.62109;932.1097;;;;
2021/07/25 14:01:17;;;;;;;7.5;5.3;;;;;;;25.08;65.87695;932.2062;;;;
2021/07/25 14:03:42;;;;;;;6.3;5.1;;;;;;;25.33;64.35547;932.1955;;;;
2021/07/25 14:06:07;;;;;;;6.1;4.8;;;;;;;25.34;64.16797;932.1265;;;;
2021/07/25 14:08:36;;;;;;;7.6;5.5;;;;;;;25.45;63.20313;932.1791;;;;
2021/07/25 14:11:01;;;;;;;7.1;4.9;;;;;;;25.65;62.86426;932.1049;;;;
2021/07/25 14:13:29;;;;;;;6.4;5;;;;;;;25.61;62.58789;932.1722;;;;
2021/07/25 14:16:00;;;;;;;6.4;4.9;;;;;;;25.42;62.80957;932.2734;;;;
2021/07/25 14:29:31;;;;;;;6.5;4.9;;;;;;;25.25;63.8584;932.0723;;;;
2021/07/25 14:32:05;;;;;;;5;4.5;;;;;;;24.92;63.62402;932.1036;;;;
2021/07/25 14:34:33;;;;;;;5.9;4.9;;;;;;;24.72;65.31641;932.1208;;;;
2021/07/25 14:37:02;;;;;;;6;4.7;;;;;;;25.03;63.75684;932.1064;;;;
2021/07/25 14:39:27;;;;;;;5.2;4.7;;;;;;;24.59;66.9248;932.1994;;;;
2021/07/25 14:41:54;;;;;;;6;4.8;;;;;;;24.66;66.54688;932.2358;;;;
2021/07/25 14:44:25;;;;;;;5.5;4.7;;;;;;;24.56;66.9209;932.2311;;;;
2021/07/25 14:46:56;;;;;;;7.8;5;;;;;;;24.54;66.91699;932.2366;;;;
2021/07/25 14:49:21;;;;;;;5.3;4.8;;;;;;;24.79;66.00977;932.2882;;;;
2021/07/25 14:51:50;;;;;;;5.7;5.1;;;;;;;24.93;65.31152;932.3158;;;;
2021/07/25 14:54:21;;;;;;;6.1;5;;;;;;;25.09;64.85156;932.4419;;;;
2021/07/25 14:56:53;;;;;;;5.5;4.7;;;;;;;25.16;64.3291;932.4576;;;;
2021/07/25 14:59:22;;;;;;;7.3;4.9;;;;;;;25.34;63.86035;932.5119;;;;
2021/07/25 15:01:53;;;;;;;7.4;5;;;;;;;25.29;63.0498;932.5803;;;;
2021/07/25 15:04:25;;;;;;;5.8;4.9;;;;;;;25.01;63.43555;932.6448;;;;
2021/07/25 15:06:55;;;;;;;6.2;4.9;;;;;;;25.18;63.16406;932.6097;;;;
2021/07/25 15:09:20;;;;;;;5.8;4.7;;;;;;;24.89;64.74023;932.6171;;;;
2021/07/25 15:11:51;;;;;;;5.6;5;;;;;;;25.03;64.95996;932.7098;;;;
2021/07/25 15:14:21;;;;;;;6.4;4.9;;;;;;;24.97;65.48145;932.7863;;;;